KMOD

Modesto City - County Airport

Airport
ICAO code
KMOD
IATA Code
MOD
Summary
ICAO Region
NAM
ICAO Territory
Location

Modesto, California

Serving
Modesto
Elevation
97 ft
Coordinates
37° 37' 33" N , 120° 57' 11" W
KCC
Airport LOS
Parallel Runway Operation
Metar
Observation
KMOD 070753Z AUTO 35004KT 10SM CLR 21/13 A3000 RMK AO2 SLP157 T02110128 403390144
Station
Modesto, Modesto City-County-Sham Field
Date/Time
2022-10-07 07:53:00
Wind direction
350°
Wind speed
04 kts
Lowest cloud amount
n/a
Temperature
21.1°C
Dew point
12.8°C
Humidity
59%
Weather condition
n/a

Modesto City-County Airport, also known as Harry Sham Field, is located 3 km southeast of the central business district of Modesto, a city in Stanislaus County, California.

Climatology

Dry-summer subtropical ”Mediterranean" climate (Köppen climate classification Csb) - characterized by warm, dry summers and mild winters. During the summer, rising hot air in California's interior valleys creates a low pressure area that draws winds from the North Pacific High.

Runways

Designator Length Width Surface Rops
10R/28L 1054 30 ASP Yes/Yes
10L/28R 1802 46 ASP Yes/Yes

Airport map

Aerial View

SKYbrary Partners:

Safety knowledge contributed by: